Time;durP1;ratioP1;P1;durP2;ratioP2;P2;SDS_P1;SDS_P2;PMS_P1;PMS_P2;Temp;Humidity;BMP_temperature;BMP_pressure;BME280_temperature;BME280_humidity;BME280_pressure;Samples;Min_cycle;Max_cycle;Signal;HPM_P1;HPM_P2
2024/01/01 00:01:08;;;;;;;31.33;19.43;;;10.30;70.10;8.80;95723.00;;;;4983618;28;20281;-85
2024/01/01 00:03:36;;;;;;;26.37;16.90;;;10.20;70.20;8.80;95709.00;;;;4988844;28;20577;-85
2024/01/01 00:06:04;;;;;;;19.87;12.67;;;10.20;70.20;8.80;95705.00;;;;4972289;28;20197;-85
2024/01/01 00:08:31;;;;;;;21.13;11.87;;;10.20;70.30;8.80;95693.00;;;;4985633;28;20207;-86
2024/01/01 00:10:58;;;;;;;16.07;10.80;;;10.20;70.50;8.80;95700.00;;;;4985145;28;20661;-86
2024/01/01 00:13:26;;;;;;;17.53;9.97;;;10.10;70.60;8.80;95711.00;;;;4986151;28;20231;-85
2024/01/01 00:15:55;;;;;;;16.97;11.47;;;10.10;70.80;8.80;95718.00;;;;4979133;28;20281;-86
2024/01/01 00:18:22;;;;;;;18.27;12.00;;;10.10;70.90;8.80;95708.00;;;;4980544;28;20207;-86
2024/01/01 00:20:50;;;;;;;18.87;12.87;;;10.10;70.80;8.80;95697.00;;;;4983694;28;20271;-86
2024/01/01 00:23:17;;;;;;;22.07;14.13;;;10.20;70.90;8.80;95707.00;;;;4981133;28;20200;-87
2024/01/01 00:25:44;;;;;;;24.07;14.33;;;10.10;70.80;8.80;95711.00;;;;4980914;28;20214;-86
2024/01/01 00:28:12;;;;;;;21.97;14.47;;;10.10;70.90;8.80;95719.00;;;;4981896;28;20223;-86
2024/01/01 00:30:40;;;;;;;23.67;15.97;;;10.10;71.00;8.80;95714.00;;;;4981657;28;20227;-84
2024/01/01 00:33:09;;;;;;;22.70;15.67;;;10.10;71.00;8.80;95707.00;;;;4985551;28;20572;-86
2024/01/01 00:35:36;;;;;;;24.20;16.63;;;10.10;71.00;8.80;95709.00;;;;4980035;28;20203;-86
2024/01/01 00:38:04;;;;;;;28.70;17.90;;;10.00;70.90;8.80;95704.00;;;;4976956;28;20213;-86
2024/01/01 00:40:31;;;;;;;29.70;18.10;;;10.00;70.80;8.80;95700.00;;;;4974836;28;20960;-85
2024/01/01 00:42:59;;;;;;;30.37;19.20;;;10.10;70.80;8.80;95703.00;;;;4971446;28;20209;-87
2024/01/01 00:45:26;;;;;;;33.33;19.73;;;10.00;70.70;8.70;95703.00;;;;4981025;28;20622;-87
2024/01/01 00:47:53;;;;;;;35.47;20.57;;;10.00;70.80;8.70;95703.00;;;;4987524;28;20281;-86
2024/01/01 00:50:22;;;;;;;33.80;22.77;;;10.00;71.00;8.70;95723.00;;;;4986818;28;20219;-85
2024/01/01 00:52:50;;;;;;;37.37;24.23;;;10.20;71.40;8.70;95717.00;;;;4983685;28;20258;-87
2024/01/01 00:55:17;;;;;;;41.23;26.13;;;9.90;70.90;8.70;95710.00;;;;4992961;28;20274;-87
2024/01/01 00:57:44;;;;;;;44.93;29.20;;;10.00;70.90;8.70;95724.00;;;;4988892;28;20245;-86
2024/01/01 01:00:12;;;;;;;52.03;31.70;;;9.90;70.80;8.70;95705.00;;;;4992472;28;20238;-87
2024/01/01 01:02:40;;;;;;;51.00;31.90;;;10.00;70.70;8.70;95703.00;;;;4989696;28;20546;-86
2024/01/01 01:05:08;;;;;;;55.40;34.13;;;10.00;70.70;8.70;95719.00;;;;4992549;28;20199;-87
2024/01/01 01:07:36;;;;;;;55.47;34.83;;;10.00;70.80;8.60;95720.00;;;;4990629;28;20250;-86
2024/01/01 01:10:04;;;;;;;53.63;35.93;;;10.00;70.80;8.60;95700.00;;;;4990852;28;20292;-86
2024/01/01 01:12:34;;;;;;;60.03;37.90;;;9.90;70.70;8.60;95717.00;;;;4990581;28;20207;-87
2024/01/01 01:15:02;;;;;;;63.17;37.50;;;10.00;70.80;8.60;95707.00;;;;4982362;28;20213;-87
2024/01/01 01:17:29;;;;;;;58.40;36.33;;;9.10;70.10;8.60;95700.00;;;;4984631;28;20210;-85
2024/01/01 01:19:57;;;;;;;59.83;38.40;;;10.00;70.80;8.60;95714.00;;;;4993006;28;20242;-86
2024/01/01 01:22:26;;;;;;;62.37;38.47;;;9.90;70.70;8.60;95708.00;;;;4999871;28;20203;-86
2024/01/01 01:24:54;;;;;;;65.83;39.60;;;9.90;70.80;8.60;95715.00;;;;4992238;28;20201;-85
2024/01/01 01:27:22;;;;;;;64.30;38.80;;;9.90;70.80;8.60;95728.00;;;;4994173;28;20269;-85
2024/01/01 01:29:52;;;;;;;56.40;37.00;;;9.90;70.70;8.60;95725.00;;;;4985234;28;20310;-87
2024/01/01 01:32:22;;;;;;;61.80;38.23;;;9.90;70.60;8.60;95725.00;;;;4999107;28;20209;-87
2024/01/01 01:34:51;;;;;;;56.67;36.57;;;9.90;70.60;8.60;95732.00;;;;5000110;28;20224;-86
2024/01/01 01:37:22;;;;;;;48.83;32.07;;;9.80;70.50;8.60;95729.00;;;;4993603;28;20226;-88
2024/01/01 01:39:49;;;;;;;45.37;30.97;;;9.90;70.50;8.60;95725.00;;;;4988468;28;20633;-86
2024/01/01 01:42:18;;;;;;;45.83;32.17;;;9.90;70.40;8.60;95731.00;;;;5001513;28;20224;-87
2024/01/01 01:44:45;;;;;;;48.87;31.63;;;9.90;70.50;8.60;95727.00;;;;4987193;28;20237;-85
2024/01/01 01:47:13;;;;;;;52.00;30.37;;;9.90;70.70;8.60;95731.00;;;;4991484;28;20667;-86
2024/01/01 01:49:42;;;;;;;47.03;30.23;;;9.90;70.80;8.60;95729.00;;;;4986136;28;20223;-86
2024/01/01 01:52:11;;;;;;;48.97;29.67;;;9.80;70.80;8.60;95741.00;;;;4991026;28;20290;-87
2024/01/01 01:54:39;;;;;;;40.07;27.07;;;9.90;70.80;8.60;95731.00;;;;4990863;28;20668;-87
2024/01/01 01:57:09;;;;;;;38.47;25.23;;;9.90;70.70;8.50;95727.00;;;;4992207;28;20202;-86
2024/01/01 01:59:42;;;;;;;35.00;23.60;;;9.80;70.40;8.50;95734.00;;;;4983903;28;20262;-87
2024/01/01 02:02:16;;;;;;;38.67;23.97;;;11.40;71.40;8.50;95727.00;;;;4978941;28;20207;-86
2024/01/01 02:04:43;;;;;;;31.67;20.87;;;9.80;70.50;8.50;95734.00;;;;4986184;28;20235;-87
2024/01/01 02:07:11;;;;;;;32.07;20.63;;;9.80;70.40;8.50;95717.00;;;;4991613;28;20250;-88
2024/01/01 02:09:39;;;;;;;31.87;19.63;;;8.50;69.40;8.50;95723.00;;;;4989247;28;20269;-87
2024/01/01 02:12:08;;;;;;;24.80;16.57;;;9.50;70.30;8.50;95719.00;;;;4987466;28;20208;-88
2024/01/01 02:14:39;;;;;;;21.07;14.50;;;9.80;70.30;8.50;95725.00;;;;4982999;28;20206;-88
2024/01/01 02:17:09;;;;;;;22.53;14.03;;;9.80;70.20;8.50;95721.00;;;;4970655;28;20396;-86
2024/01/01 02:19:52;;;;;;;;;;;;;;;;;;;;;
2024/01/01 02:22:20;;;;;;;14.23;10.97;;;9.80;70.10;8.50;95707.00;;;;4971826;28;20276;-86
2024/01/01 02:24:52;;;;;;;12.17;9.07;;;9.10;69.60;8.40;95709.00;;;;4988337;28;20235;-85
2024/01/01 02:27:20;;;;;;;9.37;7.37;;;9.70;69.80;8.40;95721.00;;;;4988854;28;20228;-87
2024/01/01 02:29:47;;;;;;;11.20;6.67;;;9.70;69.90;8.40;95702.00;;;;4978554;28;20231;-86
2024/01/01 02:32:15;;;;;;;6.23;5.17;;;9.50;69.80;8.40;95701.00;;;;4972141;28;20287;-85
2024/01/01 02:34:42;;;;;;;6.37;4.93;;;9.70;69.80;8.30;95706.00;;;;4985836;28;20206;-84
2024/01/01 02:37:12;;;;;;;5.20;4.37;;;9.70;69.90;8.30;95700.00;;;;4982187;28;20203;-85
2024/01/01 02:39:39;;;;;;;4.67;4.13;;;9.60;69.80;8.30;95701.00;;;;4983621;28;20222;-85
2024/01/01 02:42:10;;;;;;;3.90;3.50;;;9.70;69.70;8.30;95698.00;;;;4976537;28;20725;-86
2024/01/01 02:44:38;;;;;;;4.07;3.60;;;9.70;69.90;8.30;95696.00;;;;4976332;28;20343;-84
2024/01/01 02:47:05;;;;;;;5.47;3.47;;;10.60;70.50;8.30;95689.00;;;;4989638;28;20245;-85
2024/01/01 02:49:34;;;;;;;4.23;3.27;;;9.60;69.90;8.20;95696.00;;;;4989292;28;20645;-86
2024/01/01 02:52:01;;;;;;;3.70;3.30;;;9.60;70.00;8.20;95700.00;;;;4977899;28;20199;-86
2024/01/01 02:54:29;;;;;;;7.97;3.03;;;9.60;69.80;8.20;95701.00;;;;4983218;28;20285;-84
2024/01/01 02:56:56;;;;;;;3.80;3.17;;;9.60;69.80;8.20;95696.00;;;;4982046;28;20226;-86
2024/01/01 02:59:25;;;;;;;3.10;2.80;;;9.60;69.90;8.20;95698.00;;;;4984861;28;20234;-85
2024/01/01 03:01:55;;;;;;;3.30;2.70;;;9.60;69.80;8.20;95703.00;;;;4981529;28;20234;-85
2024/01/01 03:04:28;;;;;;;2.73;2.50;;;9.50;70.00;8.20;95697.00;;;;4978115;28;20200;-86
2024/01/01 03:06:55;;;;;;;2.50;2.30;;;9.50;70.00;8.20;95684.00;;;;4988630;28;20257;-86
2024/01/01 03:09:23;;;;;;;3.90;2.40;;;9.70;69.90;8.20;95690.00;;;;4983216;28;20292;-86
2024/01/01 03:11:50;;;;;;;2.90;2.70;;;9.50;70.00;8.20;95687.00;;;;4970117;28;20195;-86
2024/01/01 03:14:21;;;;;;;3.13;2.67;;;9.60;69.80;8.20;95689.00;;;;4988829;28;20203;-86
2024/01/01 03:16:50;;;;;;;2.87;2.50;;;9.60;69.90;8.20;95701.00;;;;4981067;28;20246;-86
2024/01/01 03:19:20;;;;;;;2.93;2.63;;;9.60;69.70;8.20;95699.00;;;;4979649;28;20246;-86
2024/01/01 03:21:48;;;;;;;3.67;2.37;;;9.60;69.80;8.20;95696.00;;;;4976259;28;20657;-86
2024/01/01 03:24:18;;;;;;;2.57;2.37;;;9.70;69.70;8.20;95702.00;;;;4981919;28;20636;-85
2024/01/01 03:26:45;;;;;;;2.60;2.40;;;9.20;69.40;8.20;95698.00;;;;4980414;28;20191;-85
2024/01/01 03:29:13;;;;;;;4.20;2.37;;;9.50;69.40;8.20;95675.00;;;;4985437;28;20410;-87
2024/01/01 03:31:44;;;;;;;3.87;2.30;;;9.30;69.30;8.10;95680.00;;;;4987360;28;20257;-86
2024/01/01 03:34:13;;;;;;;2.70;2.50;;;9.50;69.60;8.10;95679.00;;;;4998258;28;20723;-86
2024/01/01 03:36:40;;;;;;;2.50;2.00;;;9.50;69.50;8.10;95683.00;;;;4986810;28;20208;-85
2024/01/01 03:39:08;;;;;;;2.87;2.20;;;9.50;69.50;8.10;95678.00;;;;4983418;28;20283;-86
2024/01/01 03:41:35;;;;;;;2.77;1.93;;;9.50;69.50;8.10;95675.00;;;;4981889;28;20210;-87
2024/01/01 03:44:03;;;;;;;3.53;2.57;;;9.50;69.40;8.10;95670.00;;;;4974707;28;20237;-86
2024/01/01 03:46:30;;;;;;;3.07;2.60;;;9.50;69.40;8.10;95680.00;;;;5002342;28;20213;-85
2024/01/01 03:48:57;;;;;;;2.33;1.87;;;9.50;69.40;8.00;95678.00;;;;4990500;28;20238;-86
2024/01/01 03:51:26;;;;;;;2.70;2.20;;;9.40;69.40;8.00;95669.00;;;;4997849;28;20207;-86
2024/01/01 03:53:53;;;;;;;2.43;2.23;;;9.40;69.20;8.00;95668.00;;;;4995194;28;20230;-87
2024/01/01 03:56:23;;;;;;;1.63;1.53;;;9.30;69.10;8.00;95663.00;;;;4996558;28;20213;-86
2024/01/01 03:58:50;;;;;;;2.33;2.03;;;9.40;69.20;7.90;95674.00;;;;4991851;28;20231;-86
2024/01/01 04:01:20;;;;;;;2.27;1.63;;;9.30;69.10;7.90;95679.00;;;;4995016;28;20257;-85
2024/01/01 04:03:48;;;;;;;7.67;2.50;;;9.30;69.20;7.90;95677.00;;;;4992453;28;20290;-85
2024/01/01 04:06:15;;;;;;;3.10;1.70;;;9.30;69.30;7.90;95683.00;;;;4991828;28;20241;-87
2024/01/01 04:08:45;;;;;;;5.33;1.90;;;9.30;69.40;7.90;95674.00;;;;4987411;28;20266;-87
2024/01/01 04:11:13;;;;;;;2.83;1.77;;;9.30;69.40;7.90;95682.00;;;;4986308;28;20822;-87
2024/01/01 04:13:42;;;;;;;1.80;1.60;;;9.20;69.40;7.90;95691.00;;;;4985110;28;20195;-86
2024/01/01 04:16:09;;;;;;;1.70;1.40;;;9.30;69.30;7.90;95688.00;;;;4982773;28;20207;-87
2024/01/01 04:18:36;;;;;;;2.07;1.80;;;9.20;69.30;7.90;95691.00;;;;4990931;28;20317;-87
2024/01/01 04:21:04;;;;;;;2.40;1.67;;;9.30;69.30;7.90;95693.00;;;;4972375;28;20213;-86
2024/01/01 04:23:30;;;;;;;2.80;2.00;;;9.30;69.20;7.90;95694.00;;;;4990537;28;20492;-86
2024/01/01 04:26:03;;;;;;;2.50;1.97;;;9.30;69.20;7.90;95695.00;;;;4974757;28;20207;-86
2024/01/01 04:28:35;;;;;;;3.23;1.50;;;9.30;69.40;7.90;95704.00;;;;4983797;28;20700;-86
2024/01/01 04:31:04;;;;;;;1.80;1.60;;;9.30;69.40;7.90;95697.00;;;;4973141;28;20205;-87
2024/01/01 04:33:32;;;;;;;1.50;1.40;;;9.20;69.30;7.90;95697.00;;;;4984257;28;20732;-87
2024/01/01 04:36:01;;;;;;;2.57;1.40;;;9.20;69.20;7.90;95717.00;;;;4979041;28;20637;-86
2024/01/01 04:38:34;;;;;;;1.90;1.80;;;8.50;69.00;7.90;95711.00;;;;4988995;28;20290;-86
2024/01/01 04:41:08;;;;;;;3.80;1.63;;;9.20;69.30;7.90;95709.00;;;;4983330;28;20676;-87
2024/01/01 04:43:36;;;;;;;3.10;1.60;;;8.60;68.90;7.90;95715.00;;;;4977070;28;20295;-87
2024/01/01 04:46:04;;;;;;;1.83;1.53;;;9.20;69.40;7.90;95718.00;;;;4970823;28;20576;-87
2024/01/01 04:48:34;;;;;;;1.40;1.30;;;9.20;69.40;7.90;95717.00;;;;4986539;28;20274;-86
2024/01/01 04:51:01;;;;;;;2.90;1.60;;;9.60;69.60;7.90;95720.00;;;;4985762;28;20222;-86
2024/01/01 04:53:29;;;;;;;2.13;1.67;;;9.30;69.40;8.00;95714.00;;;;4985568;28;20554;-87
2024/01/01 04:55:57;;;;;;;1.53;1.43;;;9.30;69.50;8.00;95727.00;;;;4981146;28;20200;-86
2024/01/01 04:58:31;;;;;;;2.40;2.00;;;9.40;69.70;8.00;95720.00;;;;4992906;28;20269;-85
2024/01/01 05:01:01;;;;;;;2.77;1.70;;;9.30;69.70;8.10;95732.00;;;;4982900;28;20766;-86
2024/01/01 05:03:32;;;;;;;2.40;1.80;;;9.30;69.50;8.20;95726.00;;;;4978984;28;20285;-85
2024/01/01 05:05:59;;;;;;;2.23;2.00;;;9.40;69.60;8.20;95734.00;;;;4984008;28;20625;-88
2024/01/01 05:08:27;;;;;;;2.33;2.10;;;9.70;69.80;8.20;95739.00;;;;4992233;28;20689;-87
2024/01/01 05:10:54;;;;;;;3.00;2.00;;;9.50;69.70;8.30;95743.00;;;;4986487;28;20678;-86
2024/01/01 05:13:21;;;;;;;2.47;2.10;;;9.60;69.70;8.30;95738.00;;;;4989038;28;20245;-87
2024/01/01 05:15:50;;;;;;;2.20;1.70;;;9.60;69.60;8.30;95740.00;;;;4980561;28;20203;-86
2024/01/01 05:18:18;;;;;;;2.07;1.60;;;9.60;69.70;8.40;95741.00;;;;4986325;28;20237;-87
2024/01/01 05:20:45;;;;;;;2.53;1.87;;;9.60;69.70;8.40;95732.00;;;;4986633;28;20198;-86
2024/01/01 05:23:13;;;;;;;2.30;2.00;;;9.70;69.60;8.50;95745.00;;;;4990358;28;20199;-87
2024/01/01 05:25:40;;;;;;;3.10;1.50;;;9.80;69.40;8.50;95745.00;;;;4981587;28;20551;-85
2024/01/01 05:28:10;;;;;;;1.77;1.60;;;9.80;69.10;8.50;95745.00;;;;4990236;28;20305;-87
2024/01/01 05:30:41;;;;;;;2.47;1.70;;;9.80;69.00;8.60;95741.00;;;;4989351;28;20229;-87
2024/01/01 05:33:10;;;;;;;2.03;1.50;;;9.80;69.00;8.60;95732.00;;;;4987735;28;20306;-87
2024/01/01 05:35:41;;;;;;;2.50;1.90;;;9.90;68.90;8.60;95732.00;;;;4984049;28;20208;-87
2024/01/01 05:38:13;;;;;;;2.53;1.70;;;9.90;68.70;8.70;95742.00;;;;4981647;28;20198;-87
2024/01/01 05:40:42;;;;;;;1.70;1.47;;;10.00;68.70;8.70;95749.00;;;;4982635;28;20234;-87
2024/01/01 05:43:09;;;;;;;1.70;1.60;;;10.00;68.60;8.70;95748.00;;;;4987776;28;20203;-87
2024/01/01 05:45:36;;;;;;;1.73;1.50;;;10.00;68.40;8.80;95742.00;;;;4981644;28;20566;-87
2024/01/01 05:48:07;;;;;;;1.93;1.70;;;9.60;68.10;8.70;95745.00;;;;4974795;28;20200;-87
2024/01/01 05:50:36;;;;;;;1.70;1.50;;;10.00;68.10;8.70;95754.00;;;;4987770;28;20233;-87
2024/01/01 05:53:06;;;;;;;1.70;1.30;;;8.80;67.30;8.70;95764.00;;;;4990469;28;20199;-87
2024/01/01 05:55:34;;;;;;;1.80;1.30;;;10.00;68.10;8.70;95769.00;;;;4976905;28;20204;-87
2024/01/01 05:58:02;;;;;;;1.70;1.23;;;10.00;68.10;8.70;95775.00;;;;4990619;28;20203;-87
2024/01/01 06:00:30;;;;;;;1.97;1.50;;;10.10;68.20;8.70;95780.00;;;;4984837;28;20273;-86
2024/01/01 06:02:57;;;;;;;2.27;1.50;;;10.10;68.20;8.70;95781.00;;;;4987383;28;20711;-87
2024/01/01 06:05:24;;;;;;;1.80;1.40;;;10.00;68.20;8.70;95791.00;;;;4984490;28;20238;-86
2024/01/01 06:07:55;;;;;;;2.13;1.10;;;10.10;68.20;8.80;95795.00;;;;4983302;28;20226;-87
2024/01/01 06:10:22;;;;;;;1.80;1.20;;;10.10;68.30;8.80;95805.00;;;;4991029;28;20211;-87
2024/01/01 06:12:49;;;;;;;1.47;1.37;;;10.10;68.40;8.80;95802.00;;;;4986013;28;20258;-87
2024/01/01 06:15:27;;;;;;;;;;;;;;;;;;;;;
2024/01/01 06:17:54;;;;;;;1.27;1.17;;;10.10;68.50;8.90;95807.00;;;;4987075;28;20580;-85
2024/01/01 06:20:26;;;;;;;1.73;1.20;;;10.20;68.30;8.90;95804.00;;;;4987969;28;20639;-85
2024/01/01 06:22:55;;;;;;;1.30;1.10;;;10.20;68.10;9.00;95816.00;;;;4986972;28;20206;-86
2024/01/01 06:25:25;;;;;;;1.87;1.00;;;10.20;68.10;9.00;95819.00;;;;4977077;28;20196;-87
2024/01/01 06:27:53;;;;;;;1.40;1.30;;;10.30;68.30;9.10;95814.00;;;;4982644;28;20195;-87
2024/01/01 06:30:22;;;;;;;1.27;1.17;;;10.30;68.20;9.10;95815.00;;;;4990400;28;20233;-86
2024/01/01 06:32:54;;;;;;;1.30;1.20;;;10.40;68.20;9.10;95819.00;;;;4975044;28;20262;-86
2024/01/01 06:35:28;;;;;;;1.23;0.93;;;10.40;68.00;9.20;95819.00;;;;4986713;28;20217;-86
2024/01/01 06:38:00;;;;;;;1.20;0.90;;;10.40;68.00;9.20;95818.00;;;;4987045;28;20211;-86
2024/01/01 06:40:28;;;;;;;2.00;1.37;;;10.50;68.00;9.20;95834.00;;;;4984097;28;20250;-87
2024/01/01 06:42:55;;;;;;;1.97;0.90;;;10.50;67.80;9.30;95836.00;;;;4986156;28;20196;-86
2024/01/01 06:45:26;;;;;;;1.07;0.90;;;10.50;67.80;9.30;95840.00;;;;4978609;28;20209;-86
2024/01/01 06:47:54;;;;;;;2.10;1.00;;;10.60;67.60;9.30;95837.00;;;;4981418;28;20206;-88
2024/01/01 06:50:23;;;;;;;1.63;1.53;;;10.60;67.50;9.30;95842.00;;;;4979133;28;20305;-87
2024/01/01 06:52:58;;;;;;;1.50;1.40;;;10.60;67.50;9.30;95849.00;;;;4989002;28;20227;-85
2024/01/01 06:55:35;;;;;;;1.10;1.00;;;9.80;67.00;9.40;95856.00;;;;4978525;28;20209;-87
2024/01/01 06:58:02;;;;;;;1.73;1.40;;;10.60;67.20;9.40;95853.00;;;;4990201;28;20197;-86
2024/01/01 07:00:29;;;;;;;1.00;0.83;;;10.70;67.30;9.40;95866.00;;;;4977971;28;20227;-86
2024/01/01 07:03:00;;;;;;;2.03;1.10;;;10.70;67.30;9.40;95861.00;;;;4988682;28;20195;-86
2024/01/01 07:05:37;;;;;;;1.93;1.00;;;10.70;67.20;9.40;95862.00;;;;4977064;28;20252;-87
2024/01/01 07:08:16;;;;;;;1.37;0.97;;;10.70;67.00;9.30;95868.00;;;;4970930;28;20285;-85
2024/01/01 07:11:01;;;;;;;;;;;;;;;;;;;;;
2024/01/01 07:13:35;;;;;;;1.63;1.17;;;10.60;66.40;9.30;95871.00;;;;4987169;28;20202;-86
2024/01/01 07:16:05;;;;;;;2.33;1.07;;;11.60;67.20;9.30;95878.00;;;;4984017;28;20676;-86
2024/01/01 07:18:37;;;;;;;1.00;0.90;;;9.70;65.90;9.20;95878.00;;;;4984747;28;20206;-85
2024/01/01 07:21:08;;;;;;;1.17;1.03;;;10.60;66.60;9.20;95886.00;;;;4971246;28;20735;-87
2024/01/01 07:23:37;;;;;;;2.83;1.37;;;10.50;66.60;9.20;95884.00;;;;4988535;28;20779;-87
2024/01/01 07:26:06;;;;;;;0.77;0.70;;;10.70;66.50;9.10;95884.00;;;;4979372;28;20206;-86
2024/01/01 07:28:34;;;;;;;1.03;0.83;;;10.50;66.40;9.10;95895.00;;;;4982746;28;20290;-87
2024/01/01 07:31:01;;;;;;;1.60;0.83;;;10.40;66.60;9.10;95882.00;;;;4979512;28;20273;-84
2024/01/01 07:33:29;;;;;;;1.90;0.87;;;9.50;66.00;9.00;95879.00;;;;4985280;28;20206;-85
2024/01/01 07:35:56;;;;;;;0.70;0.70;;;10.40;66.70;9.00;95883.00;;;;4989074;28;20696;-86
2024/01/01 07:38:23;;;;;;;0.60;0.60;;;10.40;66.70;9.00;95881.00;;;;4980133;28;20256;-86
2024/01/01 07:40:51;;;;;;;0.97;0.80;;;10.50;66.80;9.00;95887.00;;;;4972607;28;20199;-86
2024/01/01 07:43:21;;;;;;;1.83;1.03;;;10.30;66.70;9.00;95882.00;;;;4984329;28;20295;-86
2024/01/01 07:45:50;;;;;;;0.80;0.80;;;10.40;66.70;9.00;95886.00;;;;4986677;28;20241;-86
2024/01/01 07:48:18;;;;;;;1.27;0.93;;;10.30;66.80;8.90;95894.00;;;;4984121;28;20195;-86
2024/01/01 07:50:45;;;;;;;3.17;0.70;;;9.00;66.00;8.90;95891.00;;;;4971820;28;20223;-86
2024/01/01 07:53:12;;;;;;;0.77;0.40;;;10.30;66.90;8.90;95884.00;;;;4985045;28;20202;-86
2024/01/01 07:55:40;;;;;;;1.30;0.70;;;10.30;67.00;8.90;95882.00;;;;4980020;28;20255;-84
2024/01/01 07:58:07;;;;;;;0.83;0.73;;;10.20;66.90;8.90;95887.00;;;;4989490;28;20194;-86
2024/01/01 08:00:36;;;;;;;1.93;0.63;;;10.30;66.70;8.90;95882.00;;;;4983362;28;20617;-86
2024/01/01 08:03:05;;;;;;;0.87;0.70;;;10.20;66.70;8.90;95888.00;;;;4976338;28;20264;-86
2024/01/01 08:05:33;;;;;;;1.17;0.60;;;10.20;66.80;8.90;95887.00;;;;4975779;28;20647;-86
2024/01/01 08:08:00;;;;;;;0.63;0.63;;;10.40;66.90;8.90;95882.00;;;;4982867;28;20214;-86
2024/01/01 08:10:28;;;;;;;1.23;0.80;;;10.20;66.80;8.90;95883.00;;;;4973866;28;20235;-86
2024/01/01 08:12:57;;;;;;;0.77;0.60;;;10.20;66.80;8.90;95881.00;;;;4986628;28;20266;-85
2024/01/01 08:15:25;;;;;;;1.17;0.70;;;10.20;66.80;8.80;95893.00;;;;4986354;28;20203;-85
2024/01/01 08:17:55;;;;;;;1.77;0.87;;;10.20;66.80;8.80;95883.00;;;;4985988;28;20290;-86
2024/01/01 08:20:22;;;;;;;1.57;0.67;;;10.20;66.70;8.80;95880.00;;;;4985839;28;20242;-86
2024/01/01 08:22:51;;;;;;;1.53;0.80;;;9.60;66.50;8.90;95877.00;;;;4980889;28;20253;-87
2024/01/01 08:25:25;;;;;;;0.87;0.60;;;10.20;66.90;8.90;95882.00;;;;4995978;28;20199;-88
2024/01/01 08:27:56;;;;;;;1.73;0.63;;;10.20;67.10;8.90;95883.00;;;;5000003;28;20303;-87
2024/01/01 08:30:23;;;;;;;0.67;0.50;;;10.20;67.20;8.90;95887.00;;;;4996095;28;20263;-88
2024/01/01 08:32:56;;;;;;;1.93;0.70;;;10.20;67.30;8.90;95897.00;;;;5002834;28;20221;-88
2024/01/01 08:35:41;;;;;;;2.47;0.80;;;10.20;67.20;9.00;95889.00;;;;4993104;28;20724;-88
2024/01/01 08:38:08;;;;;;;0.50;0.50;;;10.20;67.20;9.00;95893.00;;;;4982985;28;20688;-85
2024/01/01 08:40:38;;;;;;;0.70;0.70;;;10.30;67.20;9.10;95893.00;;;;4983891;28;20271;-85
2024/01/01 08:43:06;;;;;;;2.83;0.80;;;10.30;67.20;9.10;95896.00;;;;4979611;28;20195;-86
2024/01/01 08:45:33;;;;;;;0.93;0.80;;;10.30;67.00;9.10;95901.00;;;;4992072;28;20297;-87
2024/01/01 08:48:04;;;;;;;1.87;0.80;;;10.40;67.20;9.20;95893.00;;;;4992128;28;20246;-87
2024/01/01 08:50:34;;;;;;;1.73;1.03;;;10.40;67.10;9.20;95910.00;;;;4982757;28;20259;-86
2024/01/01 08:53:01;;;;;;;1.33;1.00;;;10.50;67.00;9.20;95916.00;;;;4981373;28;20199;-87
2024/01/01 08:55:28;;;;;;;1.47;0.70;;;10.50;67.00;9.30;95917.00;;;;4984584;28;20207;-86
2024/01/01 08:57:56;;;;;;;1.60;0.80;;;10.50;67.00;9.30;95912.00;;;;4992479;28;20199;-87
2024/01/01 09:00:26;;;;;;;0.97;0.60;;;10.60;67.00;9.40;95911.00;;;;4989624;28;20258;-87
2024/01/01 09:02:55;;;;;;;1.93;0.80;;;10.60;66.90;9.40;95916.00;;;;4990779;28;20284;-86
2024/01/01 09:05:22;;;;;;;1.43;0.77;;;10.60;66.80;9.50;95922.00;;;;4987185;28;20718;-88
2024/01/01 09:07:53;;;;;;;1.57;0.90;;;10.70;66.80;9.50;95918.00;;;;4982840;28;20618;-87
2024/01/01 09:10:21;;;;;;;1.50;1.10;;;10.70;66.50;9.60;95920.00;;;;4997460;28;20227;-86
2024/01/01 09:12:51;;;;;;;2.83;1.00;;;10.80;66.60;9.60;95923.00;;;;4996198;28;21221;-86
2024/01/01 09:15:18;;;;;;;1.73;0.80;;;10.80;66.60;9.70;95920.00;;;;4998480;28;20244;-86
2024/01/01 09:17:48;;;;;;;1.30;0.90;;;10.90;66.80;9.70;95920.00;;;;4989339;28;20238;-86
2024/01/01 09:20:15;;;;;;;1.70;0.87;;;10.90;66.70;9.80;95926.00;;;;4988089;28;20312;-87
2024/01/01 09:22:43;;;;;;;2.73;1.10;;;11.00;66.70;9.80;95929.00;;;;4980473;28;20230;-87
2024/01/01 09:25:11;;;;;;;2.30;1.13;;;11.00;66.50;9.80;95931.00;;;;4982341;28;20203;-87
2024/01/01 09:27:38;;;;;;;1.53;0.90;;;11.10;66.30;9.90;95929.00;;;;4975704;28;20212;-86
2024/01/01 09:30:07;;;;;;;1.47;0.77;;;11.10;66.30;9.90;95918.00;;;;4984982;28;20254;-87
2024/01/01 09:32:35;;;;;;;0.80;0.70;;;11.10;66.10;9.90;95919.00;;;;4985484;28;20573;-87
2024/01/01 09:35:01;;;;;;;2.97;0.90;;;11.20;66.10;10.00;95925.00;;;;4989684;28;20209;-87
2024/01/01 09:37:29;;;;;;;4.43;1.17;;;11.20;66.10;10.00;95919.00;;;;4988130;28;20230;-86
2024/01/01 09:39:57;;;;;;;1.60;1.20;;;11.20;66.00;10.00;95925.00;;;;4986972;28;20377;-86
2024/01/01 09:42:26;;;;;;;1.20;0.87;;;11.30;66.20;10.10;95927.00;;;;4985001;28;20286;-87
2024/01/01 09:44:55;;;;;;;3.07;0.60;;;11.30;66.10;10.20;95926.00;;;;4974414;28;20199;-86
2024/01/01 09:47:23;;;;;;;2.27;1.00;;;11.40;67.20;10.40;95921.00;;;;4990713;28;20565;-86
2024/01/01 09:49:51;;;;;;;4.83;2.00;;;11.50;66.70;10.50;95929.00;;;;4987681;28;20220;-86
2024/01/01 09:52:18;;;;;;;2.33;1.50;;;11.60;67.00;10.70;95933.00;;;;4981657;28;20202;-86
2024/01/01 09:54:48;;;;;;;3.63;1.70;;;11.80;67.20;10.80;95940.00;;;;4989784;28;20276;-86
2024/01/01 09:57:16;;;;;;;2.70;1.20;;;12.00;67.20;11.10;95936.00;;;;4983977;28;20690;-85
2024/01/01 09:59:44;;;;;;;2.10;0.90;;;12.10;67.30;11.30;95946.00;;;;4978203;28;20231;-87
2024/01/01 10:02:14;;;;;;;1.13;0.70;;;12.30;66.80;11.40;95949.00;;;;4975212;28;20206;-87
2024/01/01 10:04:42;;;;;;;1.27;0.90;;;12.50;66.50;11.60;95943.00;;;;4981370;28;20209;-87
2024/01/01 10:07:09;;;;;;;2.67;1.27;;;12.70;66.30;11.80;95945.00;;;;4984587;28;20202;-87
2024/01/01 10:09:48;;;;;;;2.43;1.20;;;12.90;66.90;12.00;95941.00;;;;4988695;28;20230;-87
2024/01/01 10:12:25;;;;;;;1.93;0.80;;;13.20;65.30;12.20;95960.00;;;;4979700;28;20736;-88
2024/01/01 10:14:54;;;;;;;0.83;0.70;;;13.30;65.00;12.40;95951.00;;;;4984944;28;20195;-88
2024/01/01 10:17:21;;;;;;;3.83;1.23;;;13.60;65.00;12.60;95957.00;;;;4989556;28;20194;-88
2024/01/01 10:19:52;;;;;;;1.20;0.80;;;13.70;64.90;12.70;95948.00;;;;4987696;28;20227;-87
2024/01/01 10:22:23;;;;;;;1.87;0.67;;;13.90;64.10;12.80;95955.00;;;;4969551;28;20195;-87
2024/01/01 10:24:53;;;;;;;1.20;0.60;;;13.90;63.20;12.80;95950.00;;;;4973388;28;20207;-86
2024/01/01 10:27:22;;;;;;;1.23;0.60;;;14.00;62.30;12.70;95946.00;;;;4981822;28;20202;-87
2024/01/01 10:29:49;;;;;;;1.73;0.90;;;14.00;62.50;12.70;95945.00;;;;4976083;28;20241;-88
2024/01/01 10:32:20;;;;;;;0.83;0.60;;;14.00;61.30;12.60;95938.00;;;;4968726;28;20207;-85
2024/01/01 10:34:48;;;;;;;1.27;0.60;;;13.90;60.50;12.50;95942.00;;;;4976644;28;20241;-86
2024/01/01 10:37:15;;;;;;;3.23;0.70;;;13.80;60.40;12.40;95953.00;;;;4976965;28;20720;-86
2024/01/01 10:39:46;;;;;;;1.47;0.70;;;13.80;60.30;12.30;95958.00;;;;4982363;28;20222;-86
2024/01/01 10:42:14;;;;;;;1.33;0.53;;;13.70;60.10;12.20;95949.00;;;;4979090;28;20450;-86
2024/01/01 10:44:44;;;;;;;1.63;0.80;;;13.60;60.20;12.20;95933.00;;;;4979839;28;20896;-87
2024/01/01 10:47:12;;;;;;;2.30;0.70;;;13.50;60.40;12.10;95938.00;;;;4973596;28;20226;-86
2024/01/01 10:49:51;;;;;;;2.97;1.13;;;13.40;60.50;12.10;95938.00;;;;4979288;28;20273;-85
2024/01/01 10:52:48;;;;;;;1.97;0.80;;;13.40;60.50;12.00;95930.00;;;;4972097;28;20199;-86
2024/01/01 10:55:54;;;;;;;1.80;0.70;;;13.30;60.30;11.90;95930.00;;;;4971197;28;20191;-87
2024/01/01 10:58:38;;;;;;;1.80;1.00;;;13.30;60.20;11.90;95928.00;;;;4979856;28;20264;-86
2024/01/01 11:01:13;;;;;;;1.10;0.70;;;13.20;60.70;11.80;95930.00;;;;4961205;28;20203;-84
2024/01/01 11:03:46;;;;;;;2.50;1.10;;;13.20;60.80;11.80;95942.00;;;;4970499;28;20700;-86
2024/01/01 11:06:29;;;;;;;1.07;0.70;;;13.10;60.70;11.80;95930.00;;;;4970658;28;20202;-86
2024/01/01 11:08:57;;;;;;;0.77;0.60;;;13.00;60.20;11.70;95928.00;;;;4981898;28;20219;-87
2024/01/01 11:11:30;;;;;;;1.27;0.70;;;13.00;60.80;11.80;95934.00;;;;4988745;28;20223;-85
2024/01/01 11:13:59;;;;;;;1.50;0.90;;;13.00;61.00;11.80;95932.00;;;;4979809;28;20733;-85